Time;durP1;ratioP1;P1;durP2;ratioP2;P2;SDS_P1;SDS_P2;PMS_P1;PMS_P2;Temp;Humidity;BMP_temperature;BMP_pressure;BME280_temperature;BME280_humidity;BME280_pressure;Samples;Min_cycle;Max_cycle;Signal;HPM_P1;HPM_P2
2021/05/21 00:00:48;;;;;;;3.50;2.30;;;;;;;7.35;90.55;96749.28;4983527;28;20073;-60
2021/05/21 00:03:14;;;;;;;7.80;2.70;;;;;;;7.34;90.63;96753.13;4972822;28;20059;-60
2021/05/21 00:05:40;;;;;;;3.90;2.67;;;;;;;7.26;91.10;96744.72;4963706;28;20046;-59
2021/05/21 00:08:09;;;;;;;4.40;2.10;;;;;;;7.25;91.12;96734.16;4957798;28;20043;-61
2021/05/21 00:10:34;;;;;;;3.23;2.40;;;;;;;7.24;90.78;96724.44;4977010;28;20054;-61
2021/05/21 00:12:59;;;;;;;3.35;2.38;;;;;;;7.24;91.80;96721.72;4969880;28;20134;-58
2021/05/21 00:15:25;;;;;;;3.10;2.33;;;;;;;7.23;91.26;96723.63;4959989;28;20128;-59
2021/05/21 00:17:51;;;;;;;5.03;2.83;;;;;;;7.06;92.23;96715.72;4973549;28;20051;-59
2021/05/21 00:20:16;;;;;;;3.72;2.50;;;;;;;6.96;92.95;96724.34;4972593;28;20046;-59
2021/05/21 00:22:41;;;;;;;4.10;2.45;;;;;;;6.97;93.06;96717.75;4992027;28;20158;-59
2021/05/21 00:25:07;;;;;;;7.15;3.78;;;;;;;7.01;93.24;96705.06;4988933;28;20802;-60
2021/05/21 00:27:33;;;;;;;3.55;2.90;;;;;;;7.00;93.07;96712.41;4986060;28;20765;-56
2021/05/21 00:29:58;;;;;;;5.25;2.50;;;;;;;7.01;92.86;96719.47;4973287;28;20443;-59
2021/05/21 00:32:24;;;;;;;4.03;2.63;;;;;;;7.03;92.74;96705.50;4974972;28;20590;-60
2021/05/21 00:34:49;;;;;;;6.55;2.63;;;;;;;7.01;92.84;96711.28;4976328;28;20038;-58
2021/05/21 00:37:14;;;;;;;4.10;2.10;;;;;;;7.04;92.91;96718.78;4990945;28;20046;-60
2021/05/21 00:39:40;;;;;;;5.97;2.47;;;;;;;7.12;93.22;96714.34;4971377;28;20105;-59
2021/05/21 00:42:08;;;;;;;4.85;2.55;;;;;;;7.21;92.85;96715.00;4957548;28;20495;-61
2021/05/21 00:44:34;;;;;;;3.80;2.20;;;;;;;7.25;92.51;96699.53;4957143;28;20049;-61
2021/05/21 00:47:00;;;;;;;6.85;2.28;;;;;;;7.19;91.33;96698.22;4965238;28;20045;-61
2021/05/21 00:49:25;;;;;;;4.43;2.13;;;;;;;7.08;91.25;96694.38;4977017;28;20129;-59
2021/05/21 00:51:51;;;;;;;4.93;2.35;;;;;;;6.98;92.04;96684.75;4983089;28;20047;-61
2021/05/21 00:54:19;;;;;;;3.30;2.25;;;;;;;6.94;92.37;96685.78;4969108;28;20042;-60
2021/05/21 00:56:45;;;;;;;3.33;2.22;;;;;;;6.89;92.76;96684.09;4976213;28;20430;-60
2021/05/21 00:59:10;;;;;;;6.13;2.30;;;;;;;6.88;92.55;96685.22;4978966;28;20097;-60
2021/05/21 01:01:37;;;;;;;3.78;2.30;;;;;;;6.89;92.19;96673.19;4982504;28;20042;-58
2021/05/21 01:04:03;;;;;;;4.55;2.22;;;;;;;6.90;91.89;96680.22;4971513;28;20062;-59
2021/05/21 01:06:28;;;;;;;3.50;2.40;;;;;;;6.87;91.15;96673.53;4963993;28;20049;-58
2021/05/21 01:08:55;;;;;;;3.42;2.30;;;;;;;6.89;92.34;96668.53;4983798;28;20042;-60
2021/05/21 01:11:20;;;;;;;3.35;2.28;;;;;;;6.84;92.74;96671.50;4972689;28;20047;-60
2021/05/21 01:13:46;;;;;;;3.53;2.25;;;;;;;6.78;93.26;96672.09;4964341;28;20066;-60
2021/05/21 01:16:12;;;;;;;3.17;2.08;;;;;;;6.79;93.40;96670.94;4959645;28;20092;-60
2021/05/21 01:18:37;;;;;;;3.65;2.28;;;;;;;6.82;92.95;96673.75;4967615;28;20034;-61
2021/05/21 01:21:03;;;;;;;4.80;2.80;;;;;;;6.89;93.24;96678.63;4982528;28;20069;-61
2021/05/21 01:23:29;;;;;;;3.63;2.33;;;;;;;6.92;92.96;96675.22;4981105;28;20567;-60
2021/05/21 01:25:54;;;;;;;6.82;2.15;;;;;;;6.97;92.55;96676.91;4984219;28;20141;-61
2021/05/21 01:28:20;;;;;;;4.40;2.17;;;;;;;7.06;92.22;96674.88;4978275;28;20514;-61
2021/05/21 01:30:46;;;;;;;3.13;2.13;;;;;;;7.13;91.66;96672.38;4982809;28;20411;-59
2021/05/21 01:33:12;;;;;;;4.55;2.22;;;;;;;7.09;91.60;96666.00;4978834;28;20046;-57
2021/05/21 01:35:39;;;;;;;4.85;1.92;;;;;;;7.13;90.52;96661.47;4982662;28;20054;-59
2021/05/21 01:38:06;;;;;;;2.88;2.13;;;;;;;7.20;91.08;96666.31;4978340;28;20046;-59
2021/05/21 01:40:33;;;;;;;4.00;2.13;;;;;;;7.33;91.11;96662.41;4984989;28;20042;-58
2021/05/21 01:43:00;;;;;;;4.43;2.60;;;;;;;7.35;91.03;96667.53;4983185;28;20046;-57
2021/05/21 01:45:27;;;;;;;3.85;2.03;;;;;;;7.28;90.43;96649.81;4979304;28;20100;-60
2021/05/21 01:47:52;;;;;;;6.13;1.98;;;;;;;7.24;90.14;96656.31;4984040;28;20046;-61
2021/05/21 01:50:18;;;;;;;2.63;2.20;;;;;;;7.18;91.28;96653.03;4977691;28;20073;-59
2021/05/21 01:52:44;;;;;;;3.63;2.17;;;;;;;7.08;90.81;96646.16;4975889;28;20554;-60
2021/05/21 01:55:11;;;;;;;2.20;1.70;;;;;;;7.07;90.83;96647.28;4977439;28;20049;-59
2021/05/21 01:57:38;;;;;;;3.10;2.00;;;;;;;7.17;91.15;96648.72;4973678;28;20242;-61
2021/05/21 02:00:05;;;;;;;3.47;2.20;;;;;;;7.17;91.06;96640.56;4970836;28;20046;-60
2021/05/21 02:02:31;;;;;;;2.78;2.15;;;;;;;7.14;90.18;96638.53;4975941;28;20124;-61
2021/05/21 02:04:56;;;;;;;5.07;2.28;;;;;;;7.06;91.54;96645.69;4979704;28;20443;-61
2021/05/21 02:07:22;;;;;;;3.65;2.03;;;;;;;7.04;91.53;96642.53;4971838;28;20401;-61
2021/05/21 02:09:57;;;;;;;3.35;2.00;;;;;;;7.01;91.76;96642.44;4975561;28;20133;-61
2021/05/21 02:12:23;;;;;;;3.60;2.53;;;;;;;6.94;91.92;96634.06;4976708;28;20063;-60
2021/05/21 02:14:48;;;;;;;3.38;2.40;;;;;;;6.91;92.02;96638.25;4974864;28;20054;-61
2021/05/21 02:17:14;;;;;;;3.55;2.08;;;;;;;6.92;92.27;96634.41;4972658;28;20050;-60
2021/05/21 02:19:39;;;;;;;3.70;2.08;;;;;;;6.91;92.24;96624.63;4974938;28;20043;-61
2021/05/21 02:22:09;;;;;;;3.78;2.15;;;;;;;6.89;92.12;96618.75;4976989;28;20050;-61
2021/05/21 02:24:36;;;;;;;2.35;2.15;;;;;;;6.92;91.65;96623.50;4973702;28;20385;-60
2021/05/21 02:27:01;;;;;;;2.10;1.80;;;;;;;6.94;91.57;96615.78;4974188;28;20082;-58
2021/05/21 02:29:27;;;;;;;2.38;1.98;;;;;;;6.97;91.84;96617.81;4974413;28;20077;-61
2021/05/21 02:31:52;;;;;;;2.60;2.10;;;;;;;6.99;91.67;96622.94;4980303;28;20050;-60
2021/05/21 02:34:18;;;;;;;3.55;2.08;;;;;;;7.04;91.73;96617.22;4969871;28;20046;-61
2021/05/21 02:36:44;;;;;;;3.97;2.13;;;;;;;7.07;91.57;96608.38;4980514;28;20518;-58
2021/05/21 02:39:09;;;;;;;4.90;2.10;;;;;;;7.07;91.94;96613.81;4978161;28;20038;-61
2021/05/21 02:41:35;;;;;;;3.88;2.10;;;;;;;7.03;91.34;96607.47;4981359;28;20046;-60
2021/05/21 02:44:00;;;;;;;2.60;1.90;;;;;;;6.99;91.83;96596.47;4973131;28;20047;-61
2021/05/21 02:46:26;;;;;;;3.25;1.95;;;;;;;6.94;92.11;96588.56;4969769;28;20145;-59
2021/05/21 02:48:51;;;;;;;4.13;1.95;;;;;;;6.92;91.75;96596.28;4971675;28;20046;-60
2021/05/21 02:51:17;;;;;;;3.63;2.00;;;;;;;6.92;91.94;96590.03;4970905;28;20047;-60
2021/05/21 02:53:42;;;;;;;3.60;1.80;;;;;;;6.89;91.79;96595.00;4976074;28;20050;-59
2021/05/21 02:56:08;;;;;;;3.80;1.90;;;;;;;6.86;92.51;96590.28;4973350;28;20500;-60
2021/05/21 02:58:33;;;;;;;6.20;2.50;;;;;;;6.86;92.15;96584.84;4981685;28;20137;-59
2021/05/21 03:00:58;;;;;;;3.20;2.17;;;;;;;6.93;92.82;96589.69;4983594;28;20070;-60
2021/05/21 03:03:24;;;;;;;2.33;1.73;;;;;;;7.02;92.85;96593.06;4969723;28;20042;-59
2021/05/21 03:05:50;;;;;;;3.60;1.70;;;;;;;7.12;92.93;96583.59;4981465;28;20480;-58
2021/05/21 03:08:15;;;;;;;3.05;2.38;;;;;;;7.17;92.05;96579.84;4970923;28;20535;-56
2021/05/21 03:10:41;;;;;;;1.80;1.60;;;;;;;7.20;92.23;96579.13;4978579;28;20127;-59
2021/05/21 03:13:06;;;;;;;4.60;2.03;;;;;;;7.28;91.38;96570.81;4966260;28;20487;-57
2021/05/21 03:15:32;;;;;;;2.95;1.70;;;;;;;7.20;90.53;96560.88;4969732;28;20133;-59
2021/05/21 03:17:59;;;;;;;4.03;2.13;;;;;;;6.99;91.46;96554.84;4974149;28;20042;-60
2021/05/21 03:20:25;;;;;;;4.53;1.88;;;;;;;6.80;92.87;96550.03;4977174;28;20637;-62
2021/05/21 03:22:51;;;;;;;3.88;2.10;;;;;;;6.84;92.88;96550.91;4978404;28;20111;-59
2021/05/21 03:25:17;;;;;;;4.15;2.08;;;;;;;7.03;92.27;96556.53;4968322;28;20856;-58
2021/05/21 03:27:43;;;;;;;3.63;1.90;;;;;;;7.18;92.25;96563.13;4973600;28;20519;-59
2021/05/21 03:30:10;;;;;;;7.78;2.05;;;;;;;7.31;92.01;96563.91;4974839;28;20047;-59
2021/05/21 03:32:36;;;;;;;2.35;1.90;;;;;;;7.45;90.83;96553.38;4973015;28;20141;-58
2021/05/21 03:35:02;;;;;;;4.32;1.95;;;;;;;7.55;90.41;96554.78;4972758;28;20606;-60
2021/05/21 03:37:28;;;;;;;4.97;2.20;;;;;;;7.60;90.32;96543.63;4970029;28;20050;-59
2021/05/21 03:39:54;;;;;;;2.75;1.52;;;;;;;7.55;89.33;96540.38;4979030;28;20053;-60
2021/05/21 03:42:19;;;;;;;4.97;2.00;;;;;;;7.46;89.15;96535.09;4969828;28;20492;-59
2021/05/21 03:44:44;;;;;;;5.28;2.20;;;;;;;7.36;88.91;96528.19;4975107;28;20038;-59
2021/05/21 03:47:10;;;;;;;7.68;3.03;;;;;;;7.30;89.62;96547.91;4971827;28;20074;-60
2021/05/21 03:49:36;;;;;;;3.03;1.83;;;;;;;7.25;89.50;96538.81;4972857;28;20043;-61
2021/05/21 03:52:02;;;;;;;2.42;1.98;;;;;;;7.38;89.82;96544.19;4980700;28;20042;-60
2021/05/21 03:54:27;;;;;;;5.30;1.90;;;;;;;7.43;89.90;96541.22;4973565;28;20050;-61
2021/05/21 03:56:53;;;;;;;3.47;2.00;;;;;;;7.36;89.39;96530.16;4970184;28;20061;-60
2021/05/21 03:59:19;;;;;;;3.60;1.90;;;;;;;7.35;89.63;96534.81;4969446;28;20057;-60
2021/05/21 04:01:48;;;;;;;2.78;1.90;;;;;;;7.28;90.52;96534.63;4973948;28;20089;-60
2021/05/21 04:04:14;;;;;;;5.87;2.33;;;;;;;7.29;89.91;96536.19;4967452;28;20053;-60
2021/05/21 04:06:40;;;;;;;2.58;1.90;;;;;;;7.26;90.62;96534.97;4972399;28;20035;-57
2021/05/21 04:09:06;;;;;;;4.10;1.85;;;;;;;7.26;90.93;96539.63;4975816;28;20133;-59
2021/05/21 04:11:40;;;;;;;5.53;1.73;;;;;;;7.35;90.91;96539.47;4972707;28;20051;-59
2021/05/21 04:14:06;;;;;;;3.15;1.70;;;;;;;7.58;91.04;96529.56;4958794;28;20053;-61
2021/05/21 04:16:32;;;;;;;3.92;2.10;;;;;;;7.77;90.69;96528.06;4977591;28;20499;-58
2021/05/21 04:18:59;;;;;;;5.00;1.58;;;;;;;7.95;89.40;96520.31;4974714;28;20053;-59
2021/05/21 04:21:25;;;;;;;4.78;1.80;;;;;;;7.85;88.25;96514.25;4973838;28;20133;-59
2021/05/21 04:23:50;;;;;;;3.63;2.08;;;;;;;7.69;89.48;96512.66;4982648;28;20562;-58
2021/05/21 04:26:16;;;;;;;3.20;1.92;;;;;;;7.42;90.54;96521.38;4978925;28;20046;-60
2021/05/21 04:28:42;;;;;;;4.55;2.25;;;;;;;7.01;93.37;96512.50;4977289;28;20046;-58
2021/05/21 04:31:08;;;;;;;4.78;2.60;;;;;;;6.87;94.42;96514.84;4974982;28;20148;-59
2021/05/21 04:33:34;;;;;;;5.22;2.20;;;;;;;6.98;94.36;96515.91;4982539;28;20503;-57
2021/05/21 04:36:00;;;;;;;3.85;2.50;;;;;;;7.14;93.84;96507.00;4978234;28;20082;-58
2021/05/21 04:38:26;;;;;;;4.82;2.22;;;;;;;7.30;94.17;96509.75;4975120;28;20089;-55
2021/05/21 04:40:52;;;;;;;3.85;2.25;;;;;;;7.43;92.39;96506.59;4983757;28;20054;-58
2021/05/21 04:43:25;;;;;;;2.63;1.80;;;;;;;7.79;92.29;96507.47;4977515;28;20516;-54
2021/05/21 04:45:51;;;;;;;3.75;2.35;;;;;;;8.08;90.57;96512.81;4980295;28;20057;-55
2021/05/21 04:48:16;;;;;;;2.33;1.80;;;;;;;8.21;90.09;96511.53;4978591;28;20499;-62
2021/05/21 04:50:42;;;;;;;3.35;1.90;;;;;;;8.20;88.88;96496.34;4982928;28;20525;-55
2021/05/21 04:53:07;;;;;;;6.53;1.70;;;;;;;8.28;88.84;96508.97;4975027;28;20061;-57
2021/05/21 04:55:32;;;;;;;3.28;1.70;;;;;;;8.38;87.95;96504.91;4983547;28;20518;-58
2021/05/21 04:57:58;;;;;;;4.78;1.92;;;;;;;8.58;88.07;96500.28;4983594;28;20082;-57
2021/05/21 05:00:23;;;;;;;7.93;1.70;;;;;;;8.69;87.16;96497.78;4982217;28;20801;-60
2021/05/21 05:02:49;;;;;;;3.78;1.90;;;;;;;8.82;86.29;96501.16;4989895;28;20042;-64
2021/05/21 05:05:14;;;;;;;2.95;1.92;;;;;;;8.91;85.96;96482.59;4973304;28;20057;-59
2021/05/21 05:07:40;;;;;;;2.00;1.48;;;;;;;8.51;87.25;96489.22;4983063;28;20069;-56
2021/05/21 05:10:05;;;;;;;3.45;1.73;;;;;;;8.42;88.29;96478.50;4978625;28;20070;-58
2021/05/21 05:12:31;;;;;;;2.13;1.70;;;;;;;8.45;88.43;96471.56;4982817;28;20042;-59
2021/05/21 05:14:56;;;;;;;3.28;1.80;;;;;;;8.42;89.18;96473.06;4985027;28;20039;-58
2021/05/21 05:17:22;;;;;;;6.13;1.83;;;;;;;8.57;88.50;96464.03;4976385;28;21170;-55
2021/05/21 05:19:48;;;;;;;2.80;1.80;;;;;;;8.69;88.10;96459.56;4982068;28;20137;-57
2021/05/21 05:22:13;;;;;;;2.47;1.52;;;;;;;8.55;88.02;96457.31;4972067;28;20046;-60
2021/05/21 05:24:39;;;;;;;2.67;1.60;;;;;;;8.69;88.00;96460.34;4971862;28;20134;-55
2021/05/21 05:27:06;;;;;;;3.10;1.55;;;;;;;8.83;86.99;96454.38;4963212;28;20038;-63
2021/05/21 05:29:33;;;;;;;5.70;1.95;;;;;;;8.98;86.97;96469.09;4983447;28;20049;-54
2021/05/21 05:32:00;;;;;;;3.92;1.90;;;;;;;9.08;87.02;96475.91;4978365;28;20516;-58
2021/05/21 05:34:26;;;;;;;2.47;1.45;;;;;;;9.26;87.27;96471.56;4974835;28;20078;-56
2021/05/21 05:36:51;;;;;;;4.38;2.08;;;;;;;9.42;87.36;96454.22;4981708;28;20077;-58
2021/05/21 05:39:16;;;;;;;4.50;1.73;;;;;;;9.08;89.91;96462.25;4977090;28;20074;-57
2021/05/21 05:41:42;;;;;;;4.25;1.23;;;;;;;9.80;77.51;96455.25;4983871;28;20042;-55
2021/05/21 05:44:07;;;;;;;5.97;1.58;;;;;;;9.82;81.49;96452.94;4963699;28;20051;-59
2021/05/21 05:46:33;;;;;;;2.88;1.35;;;;;;;9.95;81.42;96446.88;4976692;28;20074;-58
2021/05/21 05:48:58;;;;;;;2.08;1.40;;;;;;;10.08;80.01;96443.94;4984268;28;20511;-58
2021/05/21 05:51:24;;;;;;;1.85;1.30;;;;;;;10.08;80.90;96432.97;4977154;28;20058;-56
2021/05/21 05:53:49;;;;;;;3.63;1.85;;;;;;;10.17;81.08;96427.25;4975490;28;20043;-55
2021/05/21 05:56:15;;;;;;;4.95;2.28;;;;;;;10.09;82.61;96431.84;4978317;28;20077;-59
2021/05/21 05:58:41;;;;;;;3.08;2.17;;;;;;;10.20;82.70;96427.28;4983733;28;20105;-58
2021/05/21 06:01:06;;;;;;;14.32;9.05;;;;;;;9.92;82.26;96411.25;4976567;28;20042;-57
2021/05/21 06:03:32;;;;;;;16.38;8.38;;;;;;;9.91;83.27;96418.69;4976292;28;20058;-57
2021/05/21 06:05:58;;;;;;;9.48;4.38;;;;;;;10.41;84.04;96415.09;4973374;28;20050;-55
2021/05/21 06:08:24;;;;;;;3.65;2.17;;;;;;;10.48;82.98;96420.66;4974156;28;20739;-59
2021/05/21 06:10:53;;;;;;;3.10;1.65;;;;;;;10.65;83.22;96428.25;4966664;28;20046;-58
2021/05/21 06:13:22;;;;;;;24.27;4.13;;;;;;;10.82;82.65;96434.31;4978064;28;20127;-62
2021/05/21 06:15:48;;;;;;;3.60;2.13;;;;;;;10.70;83.22;96419.72;4979021;28;20080;-60
2021/05/21 06:18:13;;;;;;;3.90;2.05;;;;;;;10.77;84.06;96423.69;4971409;28;20046;-56
2021/05/21 06:20:38;;;;;;;3.42;2.15;;;;;;;10.71;85.10;96418.56;4982273;28;20046;-62
2021/05/21 06:23:04;;;;;;;3.10;1.83;;;;;;;10.67;83.78;96422.41;4970350;28;20148;-61
2021/05/21 06:28:18;;;;;;;8.07;4.38;;;;;;;10.45;85.94;96413.94;4973023;28;20054;-64
2021/05/21 06:30:44;;;;;;;5.57;3.58;;;;;;;10.65;85.65;96416.53;4978280;28;20085;-59
2021/05/21 06:33:09;;;;;;;3.70;2.85;;;;;;;10.97;85.15;96410.63;4974436;28;20073;-62
2021/05/21 06:35:35;;;;;;;5.90;2.15;;;;;;;11.08;81.68;96403.28;4978553;28;20053;-59
2021/05/21 06:38:00;;;;;;;4.75;1.80;;;;;;;11.05;80.38;96402.06;4974967;28;20570;-59
2021/05/21 06:40:26;;;;;;;5.32;3.00;;;;;;;10.88;81.97;96398.00;4974904;28;20081;-62
2021/05/21 06:42:51;;;;;;;3.20;1.80;;;;;;;11.08;82.00;96395.06;4986351;28;20093;-62
2021/05/21 06:45:17;;;;;;;3.33;1.60;;;;;;;11.17;82.12;96394.75;4974535;28;20073;-62
2021/05/21 06:47:43;;;;;;;2.88;1.73;;;;;;;11.34;82.61;96398.81;4977149;28;20034;-61
2021/05/21 06:50:09;;;;;;;5.40;1.77;;;;;;;11.54;80.86;96400.16;4968255;28;20448;-61
2021/05/21 06:52:35;;;;;;;3.42;1.83;;;;;;;11.80;75.31;96404.66;4980317;28;20562;-60
2021/05/21 06:55:01;;;;;;;3.03;2.00;;;;;;;12.10;76.04;96398.22;4981571;28;20197;-57
2021/05/21 06:57:26;;;;;;;4.25;1.95;;;;;;;12.35;77.19;96381.03;4975875;28;20050;-60
2021/05/21 06:59:52;;;;;;;3.72;1.95;;;;;;;12.62;75.81;96384.28;4978106;28;20050;-59
2021/05/21 07:02:18;;;;;;;2.38;1.50;;;;;;;12.21;77.35;96377.06;4969976;28;20054;-61
2021/05/21 07:04:43;;;;;;;1.80;1.25;;;;;;;11.91;78.83;96382.78;4977420;28;20864;-57
2021/05/21 07:07:08;;;;;;;1.95;1.40;;;;;;;11.69;78.79;96381.84;4971849;28;20125;-62
2021/05/21 07:09:34;;;;;;;4.40;2.20;;;;;;;11.97;79.66;96383.22;4973219;28;20197;-61
2021/05/21 07:11:59;;;;;;;4.22;1.40;;;;;;;12.37;78.85;96373.22;4973077;28;20049;-60
2021/05/21 07:14:25;;;;;;;5.07;1.27;;;;;;;12.84;77.73;96365.09;4974433;28;20112;-60
2021/05/21 07:16:51;;;;;;;4.35;1.48;;;;;;;13.16;75.89;96376.97;4977668;28;20129;-60
2021/05/21 07:19:18;;;;;;;4.47;1.30;;;;;;;13.54;75.11;96366.38;4968043;28;20117;-57
2021/05/21 07:21:45;;;;;;;1.48;1.10;;;;;;;13.76;74.45;96369.91;4976742;28;20057;-60
2021/05/21 07:24:11;;;;;;;4.57;1.50;;;;;;;13.99;73.29;96365.94;4966876;28;20054;-61
2021/05/21 07:26:36;;;;;;;4.63;1.30;;;;;;;14.04;71.84;96364.72;4978628;28;20561;-60
2021/05/21 07:29:03;;;;;;;2.97;1.40;;;;;;;14.06;71.52;96365.91;4971441;28;20779;-60
2021/05/21 07:31:30;;;;;;;4.22;1.15;;;;;;;13.98;69.93;96358.84;4977550;28;20047;-58
2021/05/21 07:33:57;;;;;;;5.47;1.38;;;;;;;13.96;70.23;96359.22;4972124;28;20049;-58
2021/05/21 07:36:23;;;;;;;9.52;2.13;;;;;;;13.46;72.79;96348.31;4975981;28;20096;-62
2021/05/21 07:38:50;;;;;;;3.33;1.40;;;;;;;13.36;71.78;96325.13;4972465;28;20042;-61
2021/05/21 07:41:18;;;;;;;1.63;1.20;;;;;;;13.09;74.17;96330.22;4965049;28;20051;-58
2021/05/21 07:43:44;;;;;;;4.32;1.10;;;;;;;13.33;72.50;96353.41;4974657;28;20133;-56
2021/05/21 07:46:10;;;;;;;1.55;1.10;;;;;;;13.47;71.13;96349.88;4974388;28;20046;-58
2021/05/21 07:48:35;;;;;;;5.22;1.30;;;;;;;13.53;70.77;96355.78;4976082;28;20050;-60
2021/05/21 07:51:02;;;;;;;5.63;1.25;;;;;;;13.53;71.20;96353.03;4971643;28;20062;-58
2021/05/21 07:53:31;;;;;;;6.88;1.85;;;;;;;13.53;72.56;96359.28;4972528;28;20125;-60
2021/05/21 07:55:56;;;;;;;5.72;1.45;;;;;;;13.48;73.50;96356.94;4976651;28;20050;-59
2021/05/21 07:58:22;;;;;;;9.60;2.10;;;;;;;13.48;73.57;96356.16;4973807;28;20513;-57
2021/05/21 08:00:47;;;;;;;2.75;1.33;;;;;;;13.34;72.73;96373.44;4964734;28;20093;-60
2021/05/21 08:03:15;;;;;;;8.93;1.40;;;;;;;13.20;73.67;96380.50;4963864;28;20538;-57
2021/05/21 08:05:40;;;;;;;4.57;1.30;;;;;;;13.13;73.15;96409.94;4981480;28;20038;-58
2021/05/21 08:08:06;;;;;;;1.67;1.20;;;;;;;12.91;72.92;96426.41;4975689;28;20431;-61
2021/05/21 08:10:31;;;;;;;4.32;1.20;;;;;;;12.86;74.17;96439.75;4981210;28;20448;-58
2021/05/21 08:12:56;;;;;;;5.07;2.15;;;;;;;12.56;70.89;96433.31;4970247;28;20515;-55
2021/05/21 08:15:22;;;;;;;3.63;1.30;;;;;;;12.54;70.65;96441.16;4975533;28;20490;-59
2021/05/21 08:17:47;;;;;;;3.10;1.30;;;;;;;12.54;71.33;96445.88;4980789;28;20050;-58
2021/05/21 08:20:14;;;;;;;2.97;1.42;;;;;;;12.33;71.03;96439.09;4974767;28;20169;-57
2021/05/21 08:22:39;;;;;;;5.95;1.65;;;;;;;12.44;72.65;96447.41;4973822;28;20448;-56
2021/05/21 08:25:05;;;;;;;1.38;0.93;;;;;;;12.68;70.84;96445.16;4985820;28;20068;-64
2021/05/21 08:27:31;;;;;;;1.70;1.17;;;;;;;12.62;71.00;96442.78;4983224;28;20042;-58
2021/05/21 08:29:56;;;;;;;1.33;0.85;;;;;;;12.72;70.60;96435.75;4977905;28;20476;-59
2021/05/21 08:32:22;;;;;;;1.83;1.00;;;;;;;12.91;69.05;96442.91;4967025;28;20062;-60
2021/05/21 08:34:47;;;;;;;3.45;1.00;;;;;;;12.97;69.91;96448.78;4975867;28;20061;-57
2021/05/21 08:37:12;;;;;;;1.40;0.90;;;;;;;13.06;69.23;96438.22;4973747;28;20372;-61
2021/05/21 08:39:39;;;;;;;6.15;1.52;;;;;;;13.01;71.05;96433.88;4980765;28;20529;-56
2021/05/21 08:42:07;;;;;;;3.10;0.90;;;;;;;13.03;68.76;96422.47;4971619;28;20043;-60
2021/05/21 08:44:35;;;;;;;3.90;1.00;;;;;;;13.23;68.45;96433.13;4977067;28;20035;-58
2021/05/21 08:47:01;;;;;;;1.73;1.30;;;;;;;12.88;70.44;96424.41;4980610;28;20109;-58
2021/05/21 08:49:26;;;;;;;2.58;1.13;;;;;;;12.79;71.37;96429.50;4973558;28;20699;-55
2021/05/21 08:51:52;;;;;;;1.80;1.20;;;;;;;12.57;72.64;96432.16;4980557;28;20042;-56
2021/05/21 08:54:17;;;;;;;2.33;1.20;;;;;;;12.40;75.11;96430.13;4962806;28;20364;-60
2021/05/21 08:56:44;;;;;;;6.15;1.33;;;;;;;12.36;75.39;96421.09;4963039;28;20193;-60
2021/05/21 08:59:09;;;;;;;1.77;0.95;;;;;;;12.17;76.38;96428.44;4956866;28;20137;-59
2021/05/21 09:01:51;;;;;;;2.40;0.95;;;;;;;12.02;78.25;96433.03;4960338;28;20150;-56
2021/05/21 09:04:16;;;;;;;1.75;0.93;;;;;;;11.94;79.60;96436.13;4956461;28;20043;-55
2021/05/21 09:06:42;;;;;;;1.90;1.20;;;;;;;11.82;80.00;96454.44;4972928;28;20061;-58
2021/05/21 09:09:10;;;;;;;3.00;0.95;;;;;;;11.63;80.74;96452.75;4971891;28;20128;-58
2021/05/21 09:11:40;;;;;;;1.92;1.00;;;;;;;11.75;82.17;96464.59;4982676;28;20046;-57
2021/05/21 09:14:07;;;;;;;3.28;1.15;;;;;;;11.55;82.92;96461.28;4971605;28;20460;-60
2021/05/21 09:16:38;;;;;;;6.65;1.10;;;;;;;11.24;83.28;96471.56;4983034;28;20101;-60
2021/05/21 09:19:03;;;;;;;3.45;1.20;;;;;;;11.17;84.79;96476.97;4983911;28;20130;-63
2021/05/21 09:21:49;;;;;;;3.08;1.00;;;;;;;11.19;85.16;96491.88;4963161;28;20487;-57
2021/05/21 09:24:15;;;;;;;8.60;2.75;;;;;;;11.14;86.66;96489.47;4957956;28;20440;-58
2021/05/21 09:26:42;;;;;;;2.67;1.10;;;;;;;11.05;87.05;96492.50;4981516;28;20038;-58
2021/05/21 09:29:11;;;;;;;2.63;1.50;;;;;;;10.98;87.42;96506.13;4973070;28;20393;-61
2021/05/21 09:31:46;;;;;;;2.30;1.05;;;;;;;10.92;87.57;96502.16;4985035;28;20051;-60
2021/05/21 09:34:13;;;;;;;3.45;1.25;;;;;;;10.76;88.18;96509.78;4979014;28;20042;-56
2021/05/21 09:36:41;;;;;;;2.35;1.40;;;;;;;10.86;89.03;96511.88;4987024;28;20073;-60
2021/05/21 09:39:09;;;;;;;1.63;1.00;;;;;;;10.96;88.83;96497.50;4980392;28;20682;-62
2021/05/21 09:41:49;;;;;;;3.25;1.33;;;;;;;11.01;89.57;96504.59;4985958;28;20049;-58
2021/05/21 09:44:16;;;;;;;5.43;1.65;;;;;;;11.27;88.69;96514.66;4959424;28;20125;-56
2021/05/21 09:46:49;;;;;;;5.75;1.80;;;;;;;11.10;88.82;96511.38;4976826;28;20057;-58
2021/05/21 09:49:36;;;;;;;2.65;1.40;;;;;;;11.18;88.82;96511.44;4966205;28;20133;-57
2021/05/21 09:52:07;;;;;;;5.78;1.30;;;;;;;11.31;88.64;96531.16;4964366;28;20053;-62
2021/05/21 09:54:56;;;;;;;3.65;1.35;;;;;;;11.19;89.06;96519.28;4977171;28;20046;-61
2021/05/21 09:57:35;;;;;;;1.63;1.00;;;;;;;11.03;89.04;96511.28;4972004;28;20050;-59
2021/05/21 10:00:01;;;;;;;3.53;1.70;;;;;;;11.09;89.32;96518.03;4979996;28;20046;-57
2021/05/21 10:02:29;;;;;;;1.60;1.08;;;;;;;11.12;89.33;96521.19;4978966;28;20039;-56
2021/05/21 10:04:55;;;;;;;4.35;1.48;;;;;;;11.02;90.29;96522.63;4982814;28;20046;-60
2021/05/21 10:07:21;;;;;;;2.22;1.30;;;;;;;10.95;89.59;96519.78;4977736;28;20054;-56
2021/05/21 10:09:47;;;;;;;4.03;2.22;;;;;;;11.13;88.85;96531.78;4972973;28;20054;-60
2021/05/21 10:12:13;;;;;;;2.50;1.38;;;;;;;10.87;88.95;96530.66;4972485;28;20069;-61
2021/05/21 10:14:41;;;;;;;5.78;2.08;;;;;;;10.90;89.41;96540.88;4981701;28;20070;-59
2021/05/21 10:17:09;;;;;;;1.92;1.48;;;;;;;10.94;89.82;96546.41;4971129;28;20042;-59
2021/05/21 10:19:36;;;;;;;2.28;1.38;;;;;;;11.07;88.73;96552.44;4982457;28;20038;-59
2021/05/21 10:22:03;;;;;;;1.88;1.35;;;;;;;11.10;88.63;96548.94;4983170;28;20515;-65
2021/05/21 10:24:35;;;;;;;2.72;1.30;;;;;;;10.85;89.93;96543.94;4980589;28;20050;-61
2021/05/21 10:27:03;;;;;;;2.28;1.20;;;;;;;10.76;89.63;96556.34;4972878;28;20046;-55
2021/05/21 10:29:31;;;;;;;4.38;1.40;;;;;;;10.78;90.44;96551.28;4965238;28;20045;-55
2021/05/21 10:32:28;;;;;;;3.63;1.98;;;;;;;10.86;91.25;96551.03;4982191;28;20054;-61
2021/05/21 10:34:54;;;;;;;3.03;1.70;;;;;;;10.66;90.70;96544.88;4981192;28;20046;-56
2021/05/21 10:37:36;;;;;;;2.15;1.35;;;;;;;10.84;91.41;96533.34;4978056;28;20047;-59
2021/05/21 10:40:10;;;;;;;2.42;1.30;;;;;;;10.70;90.48;96529.28;4982568;28;20491;-65
2021/05/21 10:42:45;;;;;;;4.03;1.48;;;;;;;10.80;90.66;96541.53;4980442;28;20053;-58
2021/05/21 10:45:15;;;;;;;4.90;1.63;;;;;;;10.86;90.67;96550.25;4969307;28;20181;-59
2021/05/21 10:47:45;;;;;;;3.05;1.20;;;;;;;11.13;89.49;96541.91;4981943;28;20503;-56
2021/05/21 10:50:20;;;;;;;3.40;1.60;;;;;;;10.90;90.39;96543.63;4967227;28;20265;-57
2021/05/21 10:52:49;;;;;;;9.95;4.97;;;;;;;10.97;90.27;96544.88;4981858;28;20039;-63
2021/05/21 10:55:16;;;;;;;2.67;1.52;;;;;;;10.96;90.35;96543.28;4975920;28;20490;-63
2021/05/21 10:57:57;;;;;;;3.90;1.30;;;;;;;10.69;90.53;96549.59;4974617;28;20101;-58
2021/05/21 11:00:23;;;;;;;2.47;1.00;;;;;;;10.76;90.23;96548.91;4970194;28;20050;-60
2021/05/21 11:02:53;;;;;;;2.58;1.30;;;;;;;10.60;91.10;96551.06;4980807;28;20048;-58
2021/05/21 11:05:37;;;;;;;;;;;;;;;10.65;92.24;96553.47;4976273;28;20057;-55
2021/05/21 11:08:06;;;;;;;2.65;1.30;;;;;;;10.87;89.44;96544.34;4980773;28;19937;-64
2021/05/21 11:10:32;;;;;;;;;;;;;;;10.74;90.54;96537.56;4982585;28;20045;-60
2021/05/21 11:13:01;;;;;;;1.70;1.20;;;;;;;10.80;90.15;96543.50;4967532;28;19913;-56
2021/05/21 11:15:48;;;;;;;4.03;1.70;;;;;;;10.86;91.28;96542.00;4969940;28;20294;-57
2021/05/21 11:18:16;;;;;;;2.70;1.30;;;;;;;11.06;90.90;96534.44;4977331;28;20491;-59
2021/05/21 11:21:03;;;;;;;2.83;1.23;;;;;;;11.17;90.28;96524.38;4965486;28;20169;-59
2021/05/21 11:23:37;;;;;;;1.60;1.02;;;;;;;11.12;88.73;96516.47;4959500;28;20564;-59
2021/05/21 11:26:22;;;;;;;2.20;1.25;;;;;;;11.23;90.84;96519.34;4960705;28;20129;-67
2021/05/21 11:28:49;;;;;;;3.40;1.40;;;;;;;11.48;89.17;96514.88;4962780;28;20464;-60
2021/05/21 11:31:22;;;;;;;1.70;1.15;;;;;;;11.31;88.95;96522.94;4958049;28;20368;-58
2021/05/21 11:33:50;;;;;;;4.40;2.17;;;;;;;11.50;89.01;96508.25;4979766;28;20042;-59
2021/05/21 11:36:16;;;;;;;3.45;1.55;;;;;;;11.50;88.49;96508.25;4967153;28;20050;-54
2021/05/21 11:38:42;;;;;;;2.78;1.52;;;;;;;11.62;88.54;96502.50;4981613;28;20510;-63
2021/05/21 11:41:11;;;;;;;4.85;2.40;;;;;;;11.60;87.54;96491.13;4976469;28;20496;-61